Impacts TAF Board
For situational awareness. Not to be used for flight planning purposes.
IDs:

KJFK - New York/Kennedy Int, NY, US

Issued at 0229 UTC 19 Feb 2019
Updated at 0233 UTC 19 Feb 2019
Potential Impact None Slight Moderate High
Time<<20/03Z 20/04Z 20/05Z 20/06Z 20/07Z 20/08Z 20/09Z 20/10Z 20/11Z 20/12Z 20/13Z 20/14Z 20/15Z
Type PRVL PRVL PRVL
VIS >6 >6 >6
CIG -- -- --
Cover SKC SKC SKC
FltCat VFR VFR VFR
WX -- -- --
WDir 340 340 340
WSpd 8 8 8
WGst -- -- --
Raw TAF
KJFK 190229Z 1902/2006 32016G23KT P6SM SKC
  FM190700 32013KT P6SM SKC
  FM191200 33011KT P6SM FEW250
  FM191800 31011KT P6SM FEW030
  FM200200 34008KT P6SM SKC


METAR Board
Radar Display
Forecast Discussion
For situational awareness. Not to be used for flight planning purposes.